Faisalabad Weather



Faisalabad's Current Weather

Temprature 8.21o clear sky

clear sky

Rain: 0 %

Min Temprature8.21o
Max Temprature8.21o
Humidity60
Wind Speed2.59 m/h
Sun Rise07:06:30
Sun Set17:29:11
Current Time: 18-Jan-2021 05:21:57
Lat/Lon: 31.4167, 73.0833




Faisalabad's Geo Location



Faisalabad's Weather Forecast

Time Overall Temp Min Temp Max Temp Humidity Wind Speed Rain
18-Jan-2021 (Mon)
08:00:00 clear sky 8.000 8.000 8.140 62 2.34 m/h 0 %
11:00:00 clear sky 14.200 14.200 15.950 41 2.45 m/h 0 %
14:00:00 clear sky 19.020 19.020 19.780 28 2.34 m/h 0 %
17:00:00 clear sky 16.950 16.950 17.020 32 1.9 m/h 0 %
20:00:00 clear sky 12.860 12.860 12.860 41 2.03 m/h 0 %
23:00:00 clear sky 11.410 11.410 11.410 46 1.71 m/h 0 %
19-Jan-2021 (Tue)
02:00:00 clear sky 10.150 10.150 10.150 52 1.86 m/h 0 %
05:00:00 clear sky 9.010 9.010 9.010 57 1.32 m/h 0 %
08:00:00 clear sky 10.290 10.290 10.290 53 0.42 m/h 0 %
11:00:00 clear sky 18.590 18.590 18.590 30 1.37 m/h 0 %
14:00:00 clear sky 22.040 22.040 22.040 22 1.73 m/h 0 %
17:00:00 clear sky 18.700 18.700 18.700 28 0.8 m/h 0 %
20:00:00 clear sky 14.620 14.620 14.620 35 0.63 m/h 0 %
23:00:00 clear sky 12.880 12.880 12.880 39 1.76 m/h 0 %
20-Jan-2021 (Wed)
02:00:00 clear sky 11.690 11.690 11.690 42 1.53 m/h 0 %
05:00:00 clear sky 10.950 10.950 10.950 44 1.59 m/h 0 %
08:00:00 clear sky 11.620 11.620 11.620 42 1.85 m/h 0 %
11:00:00 clear sky 20.810 20.810 20.810 23 2.59 m/h 0 %
14:00:00 clear sky 24.990 24.990 24.990 17 3.11 m/h 0 %
17:00:00 clear sky 20.890 20.890 20.890 23 1.77 m/h 0 %
20:00:00 clear sky 15.320 15.320 15.320 32 2.04 m/h 0 %
23:00:00 clear sky 13.870 13.870 13.870 35 1.89 m/h 0 %
21-Jan-2021 (Thu)
02:00:00 broken clouds 13.290 13.290 13.290 36 1.87 m/h 0 %
05:00:00 scattered clouds 12.060 12.060 12.060 39 2.22 m/h 0 %
08:00:00 clear sky 12.350 12.350 12.350 39 1.61 m/h 0 %
11:00:00 clear sky 21.430 21.430 21.430 22 2.25 m/h 0 %
14:00:00 clear sky 25.360 25.360 25.360 16 1.74 m/h 0 %
17:00:00 clear sky 21.250 21.250 21.250 22 1.32 m/h 0 %
20:00:00 clear sky 16.230 16.230 16.230 29 1.66 m/h 0 %
23:00:00 clear sky 14.540 14.540 14.540 33 2.17 m/h 0 %
22-Jan-2021 (Fri)
02:00:00 scattered clouds 13.390 13.390 13.390 36 2.74 m/h 0 %
05:00:00 broken clouds 12.140 12.140 12.140 39 3.32 m/h 0 %
08:00:00 scattered clouds 12.260 12.260 12.260 39 3.21 m/h 0 %
11:00:00 broken clouds 20.710 20.710 20.710 23 3.65 m/h 0 %
14:00:00 overcast clouds 25.190 25.190 25.190 17 3.2 m/h 0 %
17:00:00 overcast clouds 22.200 22.200 22.200 22 2.47 m/h 0 %
20:00:00 overcast clouds 17.860 17.860 17.860 28 4.24 m/h 0 %
23:00:00 overcast clouds 15.670 15.670 15.670 33 3.52 m/h 0 %
23-Jan-2021 (Sat)
02:00:00 overcast clouds 13.950 13.950 13.950 36 2.52 m/h 0 %
05:00:00 broken clouds 11.830 11.830 11.830 42 0.67 m/h 0 %


Faisalabad's Tourist Spots

Parks and Zoos in Faisalabad

Famous Cities (60)